createdAt,value
2023-04-16T00:00:16.000Z,280.94
2023-04-16T00:02:23.000Z,280.96
2023-04-16T00:03:49.000Z,280.94
2023-04-16T00:05:56.000Z,280.94
2023-04-16T00:07:22.000Z,280.94
2023-04-16T00:09:29.000Z,280.93
2023-04-16T00:10:55.000Z,280.93
2023-04-16T00:13:01.000Z,280.93
2023-04-16T00:14:28.000Z,280.94
2023-04-16T00:16:34.000Z,280.93
2023-04-16T00:18:01.000Z,280.93
2023-04-16T00:20:07.000Z,280.93
2023-04-16T00:21:33.000Z,280.91
2023-04-16T00:23:39.000Z,280.91
2023-04-16T00:25:06.000Z,280.9
2023-04-16T00:27:12.000Z,280.9
2023-04-16T00:28:39.000Z,280.91
2023-04-16T00:30:45.000Z,280.9
2023-04-16T00:32:11.000Z,280.9
2023-04-16T00:34:18.000Z,280.9
2023-04-16T00:37:09.000Z,280.9
2023-04-16T00:38:35.000Z,280.91
2023-04-16T00:40:41.000Z,280.91
2023-04-16T00:42:08.000Z,280.91
2023-04-16T00:44:14.000Z,280.93
2023-04-16T00:45:40.000Z,280.94
2023-04-16T00:47:47.000Z,280.93
2023-04-16T00:49:13.000Z,280.93
2023-04-16T00:51:19.000Z,280.94
2023-04-16T00:52:46.000Z,280.93
2023-04-16T00:54:52.000Z,280.93
2023-04-16T00:56:18.000Z,280.93
2023-04-16T00:58:24.000Z,280.93
2023-04-16T00:59:51.000Z,280.94
2023-04-16T01:01:57.000Z,280.96
2023-04-16T01:03:24.000Z,280.97
2023-04-16T01:05:30.000Z,280.96
2023-04-16T01:06:57.000Z,280.97
2023-04-16T01:09:03.000Z,280.96
2023-04-16T01:10:29.000Z,280.94
2023-04-16T01:12:35.000Z,280.94
2023-04-16T01:15:27.000Z,280.93
2023-04-16T01:16:53.000Z,280.93
2023-04-16T01:18:59.000Z,280.93
2023-04-16T01:20:26.000Z,280.94
2023-04-16T01:22:32.000Z,280.94
2023-04-16T01:23:58.000Z,280.94
2023-04-16T01:26:04.000Z,280.96
2023-04-16T01:27:31.000Z,280.96
2023-04-16T01:29:37.000Z,280.96
2023-04-16T01:31:03.000Z,280.97
2023-04-16T01:33:10.000Z,280.96
2023-04-16T01:34:36.000Z,280.97
2023-04-16T01:36:42.000Z,280.96
2023-04-16T01:38:09.000Z,280.96
2023-04-16T01:40:15.000Z,280.96
2023-04-16T01:41:41.000Z,280.96
2023-04-16T01:43:47.000Z,280.96
2023-04-16T01:45:14.000Z,280.96
2023-04-16T01:47:20.000Z,280.94
2023-04-16T01:48:47.000Z,280.96
2023-04-16T01:50:53.000Z,280.94
2023-04-16T01:53:44.000Z,280.94
2023-04-16T01:55:10.000Z,280.94
2023-04-16T01:57:16.000Z,280.97
2023-04-16T01:58:43.000Z,280.96
2023-04-16T02:00:49.000Z,280.94
2023-04-16T02:02:16.000Z,280.94
2023-04-16T02:04:22.000Z,280.93
2023-04-16T02:05:48.000Z,280.91
2023-04-16T02:07:54.000Z,280.91
2023-04-16T02:09:21.000Z,280.91
2023-04-16T02:11:27.000Z,280.91
2023-04-16T02:12:54.000Z,280.9
2023-04-16T02:15:00.000Z,280.9
2023-04-16T02:16:26.000Z,280.9
2023-04-16T02:18:32.000Z,280.91
2023-04-16T02:19:59.000Z,280.91
2023-04-16T02:22:05.000Z,280.9
2023-04-16T02:23:31.000Z,280.9
2023-04-16T02:25:38.000Z,280.91
2023-04-16T02:27:04.000Z,280.91
2023-04-16T02:29:10.000Z,280.9
2023-04-16T02:32:02.000Z,280.89
2023-04-16T02:33:28.000Z,280.87
2023-04-16T02:35:34.000Z,280.87
2023-04-16T02:37:01.000Z,280.87
2023-04-16T02:39:07.000Z,280.87
2023-04-16T02:40:34.000Z,280.87
2023-04-16T02:42:40.000Z,280.87
2023-04-16T02:44:06.000Z,280.86
2023-04-16T02:46:12.000Z,280.84
2023-04-16T02:47:39.000Z,280.83
2023-04-16T02:49:45.000Z,280.83
2023-04-16T02:51:12.000Z,280.82
2023-04-16T02:53:18.000Z,280.82
2023-04-16T02:54:44.000Z,280.82
2023-04-16T02:56:50.000Z,280.83
2023-04-16T02:58:17.000Z,280.82
2023-04-16T03:00:23.000Z,280.82
2023-04-16T03:01:50.000Z,280.83
2023-04-16T03:03:56.000Z,280.84
2023-04-16T03:05:22.000Z,280.86
2023-04-16T03:07:28.000Z,280.84
2023-04-16T03:10:19.000Z,280.86
2023-04-16T03:11:46.000Z,280.86
2023-04-16T03:13:52.000Z,280.86
2023-04-16T03:15:18.000Z,280.86
2023-04-16T03:17:25.000Z,280.86
2023-04-16T03:18:51.000Z,280.84
2023-04-16T03:20:57.000Z,280.84
2023-04-16T03:22:24.000Z,280.83
2023-04-16T03:24:30.000Z,280.84
2023-04-16T03:25:56.000Z,280.83
2023-04-16T03:28:02.000Z,280.84
2023-04-16T03:29:29.000Z,280.84
2023-04-16T03:31:35.000Z,280.83
2023-04-16T03:33:02.000Z,280.83
2023-04-16T03:35:08.000Z,280.83
2023-04-16T03:36:34.000Z,280.84
2023-04-16T03:38:40.000Z,280.83
2023-04-16T03:40:07.000Z,280.84
2023-04-16T03:42:13.000Z,280.83
2023-04-16T03:43:40.000Z,280.84
2023-04-16T03:45:46.000Z,280.83
2023-04-16T03:48:37.000Z,280.82
2023-04-16T03:50:03.000Z,280.82
2023-04-16T03:52:09.000Z,280.83
2023-04-16T03:53:36.000Z,280.82
2023-04-16T03:55:42.000Z,280.82
2023-04-16T03:57:08.000Z,280.79
2023-04-16T03:59:14.000Z,280.79
2023-04-16T04:00:41.000Z,280.79
2023-04-16T04:02:47.000Z,280.79
2023-04-16T04:04:14.000Z,280.78
2023-04-16T04:06:20.000Z,280.78
2023-04-16T04:07:47.000Z,280.79
2023-04-16T04:09:53.000Z,280.78
2023-04-16T04:11:20.000Z,280.76
2023-04-16T04:13:26.000Z,280.76
2023-04-16T04:14:52.000Z,280.75
2023-04-16T04:16:58.000Z,280.73
2023-04-16T04:18:25.000Z,280.73
2023-04-16T04:20:31.000Z,280.75
2023-04-16T04:21:58.000Z,280.73
2023-04-16T04:24:04.000Z,280.73
2023-04-16T04:26:55.000Z,280.73
2023-04-16T04:28:21.000Z,280.72
2023-04-16T04:30:27.000Z,280.73
2023-04-16T04:31:54.000Z,280.73
2023-04-16T04:34:00.000Z,280.75
2023-04-16T04:35:27.000Z,280.76
2023-04-16T04:37:33.000Z,280.73
2023-04-16T04:38:59.000Z,280.75
2023-04-16T04:41:05.000Z,280.73
2023-04-16T04:42:32.000Z,280.72
2023-04-16T04:44:38.000Z,280.73
2023-04-16T04:46:04.000Z,280.75
2023-04-16T04:48:11.000Z,280.73
2023-04-16T04:49:37.000Z,280.73
2023-04-16T04:51:43.000Z,280.73
2023-04-16T04:53:10.000Z,280.73
2023-04-16T04:55:16.000Z,280.73
2023-04-16T04:56:42.000Z,280.72
2023-04-16T04:58:48.000Z,280.69
2023-04-16T05:00:15.000Z,280.69
2023-04-16T05:02:21.000Z,280.69
2023-04-16T05:05:12.000Z,280.68
2023-04-16T05:06:39.000Z,280.68
2023-04-16T05:08:45.000Z,280.66
2023-04-16T05:10:12.000Z,280.66
2023-04-16T05:12:18.000Z,280.65
2023-04-16T05:13:44.000Z,280.66
2023-04-16T05:15:50.000Z,280.65
2023-04-16T05:17:17.000Z,280.65
2023-04-16T05:19:23.000Z,280.65
2023-04-16T05:20:49.000Z,280.64
2023-04-16T05:22:55.000Z,280.64
2023-04-16T05:24:22.000Z,280.64
2023-04-16T05:26:28.000Z,280.64
2023-04-16T05:27:54.000Z,280.64
2023-04-16T05:30:01.000Z,280.62
2023-04-16T05:31:27.000Z,280.64
2023-04-16T05:33:33.000Z,280.62
2023-04-16T05:35:00.000Z,280.65
2023-04-16T05:37:06.000Z,280.65
2023-04-16T05:38:32.000Z,280.65
2023-04-16T05:40:39.000Z,280.64
2023-04-16T05:43:30.000Z,280.65
2023-04-16T05:44:56.000Z,280.64
2023-04-16T05:47:02.000Z,280.64
2023-04-16T05:48:29.000Z,280.64
2023-04-16T05:50:35.000Z,280.64
2023-04-16T05:52:01.000Z,280.65
2023-04-16T05:54:08.000Z,280.66
2023-04-16T05:55:34.000Z,280.66
2023-04-16T05:57:40.000Z,280.65
2023-04-16T05:59:07.000Z,280.65
2023-04-16T06:01:13.000Z,280.66
2023-04-16T06:02:40.000Z,280.66
2023-04-16T06:04:46.000Z,280.66
2023-04-16T06:06:12.000Z,280.66
2023-04-16T06:08:19.000Z,280.68
2023-04-16T06:09:45.000Z,280.69
2023-04-16T06:11:51.000Z,280.68
2023-04-16T06:13:18.000Z,280.69
2023-04-16T06:15:24.000Z,280.72
2023-04-16T06:16:50.000Z,280.72
2023-04-16T06:18:56.000Z,280.73
2023-04-16T06:21:48.000Z,280.72
2023-04-16T06:23:14.000Z,280.72
2023-04-16T06:25:20.000Z,280.73
2023-04-16T06:26:47.000Z,280.72
2023-04-16T06:28:53.000Z,280.75
2023-04-16T06:30:20.000Z,280.75
2023-04-16T06:32:26.000Z,280.75
2023-04-16T06:33:52.000Z,280.76
2023-04-16T06:35:59.000Z,280.78
2023-04-16T06:37:25.000Z,280.79
2023-04-16T06:39:31.000Z,280.8
2023-04-16T06:40:58.000Z,280.83
2023-04-16T06:43:04.000Z,280.83
2023-04-16T06:44:30.000Z,280.84
2023-04-16T06:46:36.000Z,280.84
2023-04-16T06:48:03.000Z,280.86
2023-04-16T06:50:09.000Z,280.87
2023-04-16T06:51:36.000Z,280.87
2023-04-16T06:53:42.000Z,280.87
2023-04-16T06:55:08.000Z,280.9
2023-04-16T06:57:14.000Z,280.89
2023-04-16T07:00:05.000Z,280.9
2023-04-16T07:01:32.000Z,280.93
2023-04-16T07:03:38.000Z,280.93
2023-04-16T07:05:05.000Z,280.94
2023-04-16T07:07:11.000Z,280.94
2023-04-16T07:08:37.000Z,280.96
2023-04-16T07:10:44.000Z,280.96
2023-04-16T07:12:10.000Z,280.97
2023-04-16T07:14:16.000Z,280.97
2023-04-16T07:15:43.000Z,280.97
2023-04-16T07:17:49.000Z,280.98
2023-04-16T07:19:15.000Z,280.98
2023-04-16T07:21:21.000Z,281.01
2023-04-16T07:22:48.000Z,281.01
2023-04-16T07:24:54.000Z,281.03
2023-04-16T07:26:21.000Z,281.03
2023-04-16T07:28:27.000Z,281.03
2023-04-16T07:29:53.000Z,281.04
2023-04-16T07:32:00.000Z,281.05
2023-04-16T07:33:26.000Z,281.05
2023-04-16T07:35:32.000Z,281.07
2023-04-16T07:38:23.000Z,281.08
2023-04-16T07:39:50.000Z,281.1
2023-04-16T07:41:56.000Z,281.11
2023-04-16T07:43:22.000Z,281.12
2023-04-16T07:45:29.000Z,281.15
2023-04-16T07:46:55.000Z,281.16
2023-04-16T07:49:01.000Z,281.19
2023-04-16T07:50:28.000Z,281.21
2023-04-16T07:52:34.000Z,281.22
2023-04-16T07:54:01.000Z,281.23
2023-04-16T07:56:07.000Z,281.25
2023-04-16T07:57:33.000Z,281.29
2023-04-16T07:59:39.000Z,281.29
2023-04-16T08:01:06.000Z,281.3
2023-04-16T08:03:12.000Z,281.32
2023-04-16T08:04:39.000Z,281.33
2023-04-16T08:06:45.000Z,281.33
2023-04-16T08:08:12.000Z,281.35
2023-04-16T08:10:18.000Z,281.36
2023-04-16T08:11:45.000Z,281.37
2023-04-16T08:13:51.000Z,281.37
2023-04-16T08:16:42.000Z,281.4
2023-04-16T08:18:08.000Z,281.4
2023-04-16T08:20:15.000Z,281.43
2023-04-16T08:21:45.000Z,281.45
2023-04-16T08:23:51.000Z,281.45
2023-04-16T08:25:18.000Z,281.47
2023-04-16T08:27:24.000Z,281.48
2023-04-16T08:28:50.000Z,281.48
2023-04-16T08:30:57.000Z,281.49
2023-04-16T08:32:23.000Z,281.49
2023-04-16T08:34:29.000Z,281.49
2023-04-16T08:35:56.000Z,281.48
2023-04-16T08:38:02.000Z,281.49
2023-04-16T08:39:29.000Z,281.49
2023-04-16T08:41:35.000Z,281.49
2023-04-16T08:43:01.000Z,281.49
2023-04-16T08:45:07.000Z,281.49
2023-04-16T08:46:34.000Z,281.48
2023-04-16T08:48:40.000Z,281.48
2023-04-16T08:50:07.000Z,281.48
2023-04-16T08:52:13.000Z,281.48
2023-04-16T08:55:04.000Z,281.48
2023-04-16T08:56:30.000Z,281.49
2023-04-16T08:58:36.000Z,281.51
2023-04-16T09:00:03.000Z,281.52
2023-04-16T09:02:09.000Z,281.52
2023-04-16T09:03:36.000Z,281.51
2023-04-16T09:05:42.000Z,281.54
2023-04-16T09:07:09.000Z,281.55
2023-04-16T09:09:15.000Z,281.54
2023-04-16T09:10:42.000Z,281.52
2023-04-16T09:12:48.000Z,281.52
2023-04-16T09:14:14.000Z,281.52
2023-04-16T09:16:20.000Z,281.52
2023-04-16T09:17:47.000Z,281.52
2023-04-16T09:19:53.000Z,281.52
2023-04-16T09:21:20.000Z,281.52
2023-04-16T09:23:29.000Z,281.51
2023-04-16T09:24:56.000Z,281.52
2023-04-16T09:27:02.000Z,281.54
2023-04-16T09:28:28.000Z,281.54
2023-04-16T09:30:35.000Z,281.55
2023-04-16T09:33:26.000Z,281.54
2023-04-16T09:34:52.000Z,281.52
2023-04-16T09:36:58.000Z,281.54
2023-04-16T09:38:25.000Z,281.52
2023-04-16T09:40:31.000Z,281.49
2023-04-16T09:41:58.000Z,281.48
2023-04-16T09:44:04.000Z,281.48
2023-04-16T09:45:30.000Z,281.45
2023-04-16T09:47:36.000Z,281.43
2023-04-16T09:49:03.000Z,281.43
2023-04-16T09:51:09.000Z,281.42
2023-04-16T09:52:36.000Z,281.4
2023-04-16T09:54:42.000Z,281.37
2023-04-16T09:56:09.000Z,281.4
2023-04-16T09:58:15.000Z,281.39
2023-04-16T09:59:41.000Z,281.39
2023-04-16T10:01:47.000Z,281.39
2023-04-16T10:03:14.000Z,281.39
2023-04-16T10:05:20.000Z,281.39
2023-04-16T10:06:47.000Z,281.37
2023-04-16T10:08:53.000Z,281.39
2023-04-16T10:11:44.000Z,281.42
2023-04-16T10:13:11.000Z,281.4
2023-04-16T10:15:17.000Z,281.4
2023-04-16T10:16:44.000Z,281.39
2023-04-16T10:18:50.000Z,281.39
2023-04-16T10:20:16.000Z,281.37
2023-04-16T10:22:23.000Z,281.36
2023-04-16T10:23:49.000Z,281.36
2023-04-16T10:25:55.000Z,281.39
2023-04-16T10:27:24.000Z,281.37
2023-04-16T10:29:30.000Z,281.37
2023-04-16T10:30:56.000Z,281.4
2023-04-16T10:33:02.000Z,281.4
2023-04-16T10:34:29.000Z,281.42
2023-04-16T10:36:35.000Z,281.45
2023-04-16T10:38:02.000Z,281.47
2023-04-16T10:40:08.000Z,281.45
2023-04-16T10:41:34.000Z,281.43
2023-04-16T10:43:40.000Z,281.42
2023-04-16T10:45:07.000Z,281.39
2023-04-16T10:47:13.000Z,281.39
2023-04-16T10:50:04.000Z,281.35
2023-04-16T10:51:31.000Z,281.37
2023-04-16T10:53:37.000Z,281.39
2023-04-16T10:55:03.000Z,281.4
2023-04-16T10:57:09.000Z,281.37
2023-04-16T10:58:36.000Z,281.35
2023-04-16T11:00:42.000Z,281.35
2023-04-16T11:02:08.000Z,281.35
2023-04-16T11:04:15.000Z,281.33
2023-04-16T11:05:41.000Z,281.3
2023-04-16T11:07:47.000Z,281.29
2023-04-16T11:09:16.000Z,281.28
2023-04-16T11:11:22.000Z,281.28
2023-04-16T11:12:48.000Z,281.28
2023-04-16T11:14:54.000Z,281.25
2023-04-16T11:16:21.000Z,281.23
2023-04-16T11:18:27.000Z,281.22
2023-04-16T11:19:54.000Z,281.22
2023-04-16T11:22:00.000Z,281.21
2023-04-16T11:23:26.000Z,281.21
2023-04-16T11:25:33.000Z,281.21
2023-04-16T11:28:24.000Z,281.19
2023-04-16T11:29:50.000Z,281.18
2023-04-16T11:31:56.000Z,281.16
2023-04-16T11:33:23.000Z,281.15
2023-04-16T11:35:29.000Z,281.15
2023-04-16T11:36:55.000Z,281.15
2023-04-16T11:39:01.000Z,281.15
2023-04-16T11:40:28.000Z,281.15
2023-04-16T11:42:34.000Z,281.12
2023-04-16T11:44:00.000Z,281.12
2023-04-16T11:46:07.000Z,281.11
2023-04-16T11:47:53.000Z,281.12
2023-04-16T11:49:59.000Z,281.12
2023-04-16T11:51:25.000Z,281.12
2023-04-16T11:53:31.000Z,281.12
2023-04-16T11:54:58.000Z,281.12
2023-04-16T11:57:04.000Z,281.12
2023-04-16T11:58:31.000Z,281.14
2023-04-16T12:00:38.000Z,281.14
2023-04-16T12:02:04.000Z,281.14
2023-04-16T12:04:10.000Z,281.12
2023-04-16T12:07:02.000Z,281.12
2023-04-16T12:08:28.000Z,281.12
2023-04-16T12:10:35.000Z,281.12
2023-04-16T12:12:01.000Z,281.12
2023-04-16T12:14:07.000Z,281.12
2023-04-16T12:15:34.000Z,281.12
2023-04-16T12:17:40.000Z,281.14
2023-04-16T12:19:06.000Z,281.12
2023-04-16T12:21:12.000Z,281.15
2023-04-16T12:22:39.000Z,281.18
2023-04-16T12:24:45.000Z,281.18
2023-04-16T12:26:11.000Z,281.19
2023-04-16T12:28:18.000Z,281.19
2023-04-16T12:29:44.000Z,281.19
2023-04-16T12:31:50.000Z,281.19
2023-04-16T12:33:17.000Z,281.16
2023-04-16T12:35:23.000Z,281.16
2023-04-16T12:36:49.000Z,281.18
2023-04-16T12:38:55.000Z,281.19
2023-04-16T12:40:22.000Z,281.22
2023-04-16T12:42:28.000Z,281.23
2023-04-16T12:45:19.000Z,281.26
2023-04-16T12:46:46.000Z,281.29
2023-04-16T12:48:52.000Z,281.28
2023-04-16T12:50:19.000Z,281.3
2023-04-16T12:52:25.000Z,281.33
2023-04-16T12:53:51.000Z,281.36
2023-04-16T12:55:58.000Z,281.39
2023-04-16T12:57:24.000Z,281.43
2023-04-16T12:59:30.000Z,281.43
2023-04-16T13:00:57.000Z,281.48
2023-04-16T13:03:03.000Z,281.52
2023-04-16T13:04:30.000Z,281.52
2023-04-16T13:06:36.000Z,281.55
2023-04-16T13:08:02.000Z,281.56
2023-04-16T13:10:08.000Z,281.56
2023-04-16T13:11:35.000Z,281.58
2023-04-16T13:13:41.000Z,281.58
2023-04-16T13:15:08.000Z,281.61
2023-04-16T13:17:14.000Z,281.62
2023-04-16T13:18:40.000Z,281.65
2023-04-16T13:20:46.000Z,281.68
2023-04-16T13:23:38.000Z,281.69
2023-04-16T13:25:04.000Z,281.72
2023-04-16T13:27:10.000Z,281.72
2023-04-16T13:28:37.000Z,281.7
2023-04-16T13:30:43.000Z,281.72
2023-04-16T13:32:09.000Z,281.76
2023-04-16T13:34:15.000Z,281.77
2023-04-16T13:35:42.000Z,281.82
2023-04-16T13:37:48.000Z,281.84
2023-04-16T13:39:14.000Z,281.85
2023-04-16T13:41:20.000Z,281.81
2023-04-16T13:42:47.000Z,281.82
2023-04-16T13:44:53.000Z,281.82
2023-04-16T13:46:20.000Z,281.84
2023-04-16T13:48:26.000Z,281.84
2023-04-16T13:49:52.000Z,281.85
2023-04-16T13:51:59.000Z,281.85
2023-04-16T13:53:25.000Z,281.85
2023-04-16T13:55:31.000Z,281.87
2023-04-16T13:56:58.000Z,281.85
2023-04-16T13:59:04.000Z,281.87
2023-04-16T14:01:55.000Z,281.88
2023-04-16T14:03:22.000Z,281.88
2023-04-16T14:05:28.000Z,281.91
2023-04-16T14:06:54.000Z,281.91
2023-04-16T14:09:01.000Z,281.94
2023-04-16T14:10:27.000Z,281.94
2023-04-16T14:12:33.000Z,281.95
2023-04-16T14:14:00.000Z,281.96
2023-04-16T14:16:06.000Z,281.98
2023-04-16T14:17:33.000Z,281.99
2023-04-16T14:19:39.000Z,281.99
2023-04-16T14:21:05.000Z,281.99
2023-04-16T14:23:11.000Z,281.98
2023-04-16T14:24:38.000Z,281.98
2023-04-16T14:26:44.000Z,281.98
2023-04-16T14:28:10.000Z,281.96
2023-04-16T14:30:19.000Z,281.96
2023-04-16T14:31:45.000Z,281.98
2023-04-16T14:33:51.000Z,281.99
2023-04-16T14:35:18.000Z,282.02
2023-04-16T14:37:24.000Z,282.02
2023-04-16T14:40:15.000Z,282.02
2023-04-16T14:41:42.000Z,282.03
2023-04-16T14:43:48.000Z,282.01
2023-04-16T14:45:14.000Z,282.03
2023-04-16T14:47:20.000Z,282.03
2023-04-16T14:48:47.000Z,282.02
2023-04-16T14:50:53.000Z,282.02
2023-04-16T14:52:19.000Z,282.02
2023-04-16T14:54:26.000Z,282.05
2023-04-16T14:55:52.000Z,282.05
2023-04-16T14:57:58.000Z,282.06
2023-04-16T14:59:25.000Z,282.06
2023-04-16T15:01:31.000Z,282.08
2023-04-16T15:05:03.000Z,282.1
2023-04-16T15:06:30.000Z,282.12
2023-04-16T15:08:36.000Z,282.12
2023-04-16T15:10:02.000Z,282.12
2023-04-16T15:12:08.000Z,282.12
2023-04-16T15:13:35.000Z,282.12
2023-04-16T15:15:41.000Z,282.1
2023-04-16T15:18:33.000Z,282.1
2023-04-16T15:19:59.000Z,282.1
2023-04-16T15:22:05.000Z,282.1
2023-04-16T15:23:32.000Z,282.1
2023-04-16T15:25:38.000Z,282.12
2023-04-16T15:27:05.000Z,282.12
2023-04-16T15:29:11.000Z,282.1
2023-04-16T15:30:37.000Z,282.1
2023-04-16T15:32:43.000Z,282.12
2023-04-16T15:34:10.000Z,282.12
2023-04-16T15:36:16.000Z,282.13
2023-04-16T15:37:43.000Z,282.13
2023-04-16T15:39:49.000Z,282.1
2023-04-16T15:41:16.000Z,282.1
2023-04-16T15:43:22.000Z,282.09
2023-04-16T15:44:48.000Z,282.06
2023-04-16T15:46:54.000Z,282.08
2023-04-16T15:48:21.000Z,282.06
2023-04-16T15:50:27.000Z,282.05
2023-04-16T15:51:53.000Z,282.05
2023-04-16T15:54:00.000Z,282.06
2023-04-16T15:56:50.000Z,282.03
2023-04-16T15:58:17.000Z,282.05
2023-04-16T16:00:23.000Z,282.03
2023-04-16T16:01:50.000Z,282.03
2023-04-16T16:03:56.000Z,282.01
2023-04-16T16:05:23.000Z,282.01
2023-04-16T16:07:29.000Z,282.01
2023-04-16T16:08:56.000Z,281.99
2023-04-16T16:11:02.000Z,281.98
2023-04-16T16:12:28.000Z,281.98
2023-04-16T16:14:34.000Z,281.98
2023-04-16T16:16:01.000Z,281.96
2023-04-16T16:18:07.000Z,281.96
2023-04-16T16:19:34.000Z,281.95
2023-04-16T16:21:40.000Z,281.95
2023-04-16T16:23:06.000Z,281.95
2023-04-16T16:25:12.000Z,281.92
2023-04-16T16:26:39.000Z,281.91
2023-04-16T16:28:45.000Z,281.91
2023-04-16T16:30:12.000Z,281.89
2023-04-16T16:32:18.000Z,281.89
2023-04-16T16:35:09.000Z,281.87
2023-04-16T16:36:35.000Z,281.87
2023-04-16T16:38:41.000Z,281.87
2023-04-16T16:40:08.000Z,281.87
2023-04-16T16:42:14.000Z,281.87
2023-04-16T16:43:40.000Z,281.87
2023-04-16T16:45:47.000Z,281.87
2023-04-16T16:47:13.000Z,281.87
2023-04-16T16:49:19.000Z,281.85
2023-04-16T16:50:46.000Z,281.84
2023-04-16T16:52:52.000Z,281.84
2023-04-16T16:54:18.000Z,281.81
2023-04-16T16:56:24.000Z,281.81
2023-04-16T16:57:51.000Z,281.79
2023-04-16T16:59:57.000Z,281.77
2023-04-16T17:01:23.000Z,281.77
2023-04-16T17:03:30.000Z,281.75
2023-04-16T17:04:56.000Z,281.75
2023-04-16T17:07:02.000Z,281.73
2023-04-16T17:08:29.000Z,281.72
2023-04-16T17:10:35.000Z,281.72
2023-04-16T17:13:26.000Z,281.7
2023-04-16T17:14:53.000Z,281.69
2023-04-16T17:16:59.000Z,281.68
2023-04-16T17:18:25.000Z,281.66
2023-04-16T17:20:31.000Z,281.65
2023-04-16T17:21:58.000Z,281.63
2023-04-16T17:24:04.000Z,281.62
2023-04-16T17:25:30.000Z,281.62
2023-04-16T17:27:37.000Z,281.61
2023-04-16T17:29:03.000Z,281.59
2023-04-16T17:31:09.000Z,281.59
2023-04-16T17:32:36.000Z,281.58
2023-04-16T17:34:42.000Z,281.56
2023-04-16T17:36:08.000Z,281.55
2023-04-16T17:38:15.000Z,281.54
2023-04-16T17:39:41.000Z,281.52
2023-04-16T17:41:47.000Z,281.51
2023-04-16T17:43:14.000Z,281.48
2023-04-16T17:45:20.000Z,281.45
2023-04-16T17:46:46.000Z,281.42
2023-04-16T17:48:52.000Z,281.4
2023-04-16T17:51:44.000Z,281.36
2023-04-16T17:53:10.000Z,281.35
2023-04-16T17:55:17.000Z,281.35
2023-04-16T17:56:43.000Z,281.33
2023-04-16T17:58:49.000Z,281.32
2023-04-16T18:00:16.000Z,281.32
2023-04-16T18:02:22.000Z,281.3
2023-04-16T18:03:49.000Z,281.29
2023-04-16T18:05:55.000Z,281.28
2023-04-16T18:07:22.000Z,281.26
2023-04-16T18:09:28.000Z,281.25
2023-04-16T18:10:54.000Z,281.25
2023-04-16T18:13:00.000Z,281.25
2023-04-16T18:14:27.000Z,281.23
2023-04-16T18:16:33.000Z,281.23
2023-04-16T18:18:00.000Z,281.22
2023-04-16T18:20:06.000Z,281.22
2023-04-16T18:21:32.000Z,281.21
2023-04-16T18:23:39.000Z,281.21
2023-04-16T18:25:05.000Z,281.19
2023-04-16T18:27:11.000Z,281.18
2023-04-16T18:30:03.000Z,281.16
2023-04-16T18:31:31.000Z,281.15
2023-04-16T18:35:10.000Z,281.12
2023-04-16T18:37:16.000Z,281.12
2023-04-16T18:38:43.000Z,281.11
2023-04-16T18:41:05.000Z,281.1
2023-04-16T18:42:32.000Z,281.08
2023-04-16T18:44:38.000Z,281.07
2023-04-16T18:46:05.000Z,281.05
2023-04-16T18:48:11.000Z,281.05
2023-04-16T18:49:37.000Z,281.04
2023-04-16T18:51:43.000Z,281.03
2023-04-16T18:53:10.000Z,281.03
2023-04-16T18:55:16.000Z,281.01
2023-04-16T18:56:42.000Z,281
2023-04-16T18:58:48.000Z,280.98
2023-04-16T19:00:15.000Z,281
2023-04-16T19:02:21.000Z,280.98
2023-04-16T19:03:48.000Z,280.97
2023-04-16T19:05:54.000Z,280.97
2023-04-16T19:08:45.000Z,280.93
2023-04-16T19:10:11.000Z,280.93
2023-04-16T19:12:18.000Z,280.93
2023-04-16T19:13:44.000Z,280.91
2023-04-16T19:15:50.000Z,280.91
2023-04-16T19:17:17.000Z,280.9
2023-04-16T19:19:23.000Z,280.91
2023-04-16T19:20:49.000Z,280.9
2023-04-16T19:22:56.000Z,280.9
2023-04-16T19:24:22.000Z,280.9
2023-04-16T19:26:28.000Z,280.9
2023-04-16T19:27:55.000Z,280.89
2023-04-16T19:30:01.000Z,280.9
2023-04-16T19:31:27.000Z,280.89
2023-04-16T19:33:33.000Z,280.89
2023-04-16T19:35:00.000Z,280.89
2023-04-16T19:37:06.000Z,280.89
2023-04-16T19:38:33.000Z,280.87
2023-04-16T19:40:39.000Z,280.87
2023-04-16T19:42:05.000Z,280.86
2023-04-16T19:44:11.000Z,280.86
2023-04-16T19:47:02.000Z,280.86
2023-04-16T19:48:29.000Z,280.86
2023-04-16T19:50:35.000Z,280.86
2023-04-16T19:52:01.000Z,280.86
2023-04-16T19:54:08.000Z,280.84
2023-04-16T19:55:34.000Z,280.84
2023-04-16T19:57:40.000Z,280.84
2023-04-16T19:59:07.000Z,280.84
2023-04-16T20:01:13.000Z,280.83
2023-04-16T20:02:39.000Z,280.82
2023-04-16T20:04:46.000Z,280.83
2023-04-16T20:06:12.000Z,280.8
2023-04-16T20:08:18.000Z,280.82
2023-04-16T20:09:45.000Z,280.79
2023-04-16T20:11:51.000Z,280.78
2023-04-16T20:13:18.000Z,280.76
2023-04-16T20:15:24.000Z,280.75
2023-04-16T20:16:51.000Z,280.73
2023-04-16T20:18:57.000Z,280.72
2023-04-16T20:20:23.000Z,280.71
2023-04-16T20:22:30.000Z,280.69
2023-04-16T20:25:20.000Z,280.68
2023-04-16T20:26:47.000Z,280.68
2023-04-16T20:28:53.000Z,280.65
2023-04-16T20:30:20.000Z,280.65
2023-04-16T20:32:26.000Z,280.65
2023-04-16T20:33:54.000Z,280.64
2023-04-16T20:36:00.000Z,280.64
2023-04-16T20:37:26.000Z,280.62
2023-04-16T20:39:32.000Z,280.62
2023-04-16T20:40:59.000Z,280.61
2023-04-16T20:43:05.000Z,280.59
2023-04-16T20:44:32.000Z,280.59
2023-04-16T20:46:38.000Z,280.56
2023-04-16T20:48:04.000Z,280.56
2023-04-16T20:50:11.000Z,280.56
2023-04-16T20:51:37.000Z,280.54
2023-04-16T20:53:44.000Z,280.54
2023-04-16T20:55:11.000Z,280.56
2023-04-16T20:57:17.000Z,280.56
2023-04-16T20:58:43.000Z,280.57
2023-04-16T21:00:49.000Z,280.54
2023-04-16T21:03:41.000Z,280.56
2023-04-16T21:05:08.000Z,280.57
2023-04-16T21:07:14.000Z,280.57
2023-04-16T21:08:40.000Z,280.57
2023-04-16T21:10:46.000Z,280.56
2023-04-16T21:12:13.000Z,280.57
2023-04-16T21:14:19.000Z,280.56
2023-04-16T21:15:46.000Z,280.56
2023-04-16T21:17:52.000Z,280.54
2023-04-16T21:19:18.000Z,280.54
2023-04-16T21:21:24.000Z,280.54
2023-04-16T21:22:51.000Z,280.54
2023-04-16T21:24:57.000Z,280.54
2023-04-16T21:26:24.000Z,280.56
2023-04-16T21:28:30.000Z,280.56
2023-04-16T21:29:56.000Z,280.54
2023-04-16T21:32:02.000Z,280.54
2023-04-16T21:33:29.000Z,280.54
2023-04-16T21:35:35.000Z,280.56
2023-04-16T21:37:01.000Z,280.56
2023-04-16T21:39:08.000Z,280.57
2023-04-16T21:41:58.000Z,280.56
2023-04-16T21:43:25.000Z,280.59
2023-04-16T21:45:31.000Z,280.57
2023-04-16T21:46:58.000Z,280.59
2023-04-16T21:49:04.000Z,280.61
2023-04-16T21:50:30.000Z,280.61
2023-04-16T21:52:36.000Z,280.59
2023-04-16T21:54:03.000Z,280.59
2023-04-16T21:56:09.000Z,280.59
2023-04-16T21:57:35.000Z,280.61
2023-04-16T21:59:42.000Z,280.59
2023-04-16T22:01:08.000Z,280.59
2023-04-16T22:03:17.000Z,280.59
2023-04-16T22:04:44.000Z,280.59
2023-04-16T22:06:50.000Z,280.57
2023-04-16T22:08:16.000Z,280.56
2023-04-16T22:10:31.000Z,280.54
2023-04-16T22:11:57.000Z,280.54
2023-04-16T22:14:03.000Z,280.53
2023-04-16T22:15:30.000Z,280.53
2023-04-16T22:17:36.000Z,280.54
2023-04-16T22:20:27.000Z,280.53
2023-04-16T22:21:54.000Z,280.53
2023-04-16T22:24:00.000Z,280.54
2023-04-16T22:25:26.000Z,280.53
2023-04-16T22:27:32.000Z,280.53
2023-04-16T22:28:59.000Z,280.53
2023-04-16T22:31:05.000Z,280.53
2023-04-16T22:32:32.000Z,280.51
2023-04-16T22:34:38.000Z,280.51
2023-04-16T22:36:04.000Z,280.54
2023-04-16T22:38:10.000Z,280.53
2023-04-16T22:39:37.000Z,280.53
2023-04-16T22:41:43.000Z,280.53
2023-04-16T22:43:10.000Z,280.53
2023-04-16T22:45:16.000Z,280.54
2023-04-16T22:46:42.000Z,280.54
2023-04-16T22:48:48.000Z,280.54
2023-04-16T22:50:15.000Z,280.56
2023-04-16T22:52:21.000Z,280.54